createdAt,value
2024-01-04T00:00:40.808Z,13.80
2024-01-04T00:06:03.930Z,16.30
2024-01-04T00:16:12.212Z,10.90
2024-01-04T00:21:15.489Z,11.60
2024-01-04T00:26:18.318Z,11.50
2024-01-04T00:31:21.165Z,10.50
2024-01-04T00:36:23.902Z,10.60
2024-01-04T00:41:26.875Z,15.40
2024-01-04T00:51:32.297Z,10.50
2024-01-04T00:56:37.076Z,10.50
2024-01-04T01:01:40.341Z,12.70
2024-01-04T01:06:43.229Z,12.30
2024-01-04T01:11:46.388Z,10.30
2024-01-04T01:21:51.841Z,11.30
2024-01-04T01:26:54.630Z,13.00
2024-01-04T01:31:57.484Z,12.40
2024-01-04T01:37:00.576Z,12.40
2024-01-04T01:47:06.573Z,15.60
2024-01-04T01:57:12.824Z,11.00
2024-01-04T02:02:16.958Z,15.60
2024-01-04T02:07:20.079Z,12.00
2024-01-04T02:17:27.190Z,11.90
2024-01-04T02:22:31.443Z,18.90
2024-01-04T02:27:34.199Z,13.60
2024-01-04T02:32:37.084Z,10.30
2024-01-04T02:42:42.695Z,11.20
2024-01-04T02:47:45.552Z,11.70
2024-01-04T02:52:48.431Z,14.20
2024-01-04T02:57:51.947Z,15.50
2024-01-04T03:02:54.668Z,11.80
2024-01-04T03:07:57.433Z,10.10
2024-01-04T03:13:00.143Z,11.10
2024-01-04T03:18:03.091Z,10.70
2024-01-04T03:28:08.672Z,9.20
2024-01-04T03:33:11.522Z,13.20
2024-01-04T03:38:14.912Z,8.90
2024-01-04T03:43:17.701Z,9.30
2024-01-04T03:48:20.570Z,10.40
2024-01-04T03:53:23.418Z,9.40
2024-01-04T03:58:27.320Z,9.80
2024-01-04T04:03:30.691Z,9.80
2024-01-04T04:08:33.572Z,7.80
2024-01-04T04:13:36.409Z,13.90
2024-01-04T04:18:39.369Z,11.90
2024-01-04T04:28:46.190Z,7.20
2024-01-04T04:33:50.143Z,11.10
2024-01-04T04:38:53.305Z,9.50
2024-01-04T04:48:59.893Z,9.20
2024-01-04T04:54:04.568Z,11.60
2024-01-04T04:59:07.466Z,8.50
2024-01-04T05:04:10.602Z,8.10
2024-01-04T05:09:13.497Z,9.40
2024-01-04T05:14:16.346Z,10.80
2024-01-04T05:19:19.167Z,7.70
2024-01-04T05:24:22.082Z,8.00
2024-01-04T05:29:27.074Z,7.50
2024-01-04T05:34:33.503Z,9.00
2024-01-04T05:39:36.829Z,12.20
2024-01-04T05:44:39.610Z,10.00
2024-01-04T05:49:42.615Z,9.00
2024-01-04T05:54:45.439Z,9.60
2024-01-04T05:59:48.209Z,11.70
2024-01-04T06:04:50.938Z,7.10
2024-01-04T06:09:53.877Z,9.30
2024-01-04T06:14:57.161Z,10.60
2024-01-04T06:19:59.976Z,10.50
2024-01-04T06:25:02.745Z,11.40
2024-01-04T06:30:07.496Z,16.60
2024-01-04T06:35:10.377Z,14.00
2024-01-04T06:40:13.218Z,11.10
2024-01-04T06:45:16.134Z,8.50
2024-01-04T06:50:19.744Z,8.00
2024-01-04T06:55:22.891Z,10.10
2024-01-04T07:00:26.618Z,12.60
2024-01-04T07:05:29.610Z,10.50
2024-01-04T07:10:32.540Z,12.30
2024-01-04T07:15:35.372Z,17.30
2024-01-04T07:20:42.541Z,18.90
2024-01-04T07:25:45.501Z,23.00
2024-01-04T07:30:48.382Z,16.40
2024-01-04T07:40:53.987Z,17.30
2024-01-04T07:45:56.784Z,29.10
2024-01-04T07:51:00.778Z,14.50
2024-01-04T07:56:04.220Z,16.60
2024-01-04T08:01:08.003Z,11.80
2024-01-04T08:06:10.886Z,11.90
2024-01-04T08:11:13.784Z,11.20
2024-01-04T08:16:16.584Z,12.80
2024-01-04T08:21:20.367Z,13.90
2024-01-04T08:26:23.247Z,16.60
2024-01-04T08:31:27.120Z,16.10
2024-01-04T08:36:30.150Z,14.80
2024-01-04T08:41:33.050Z,17.00
2024-01-04T08:46:39.282Z,15.60
2024-01-04T08:51:42.668Z,23.90
2024-01-04T09:01:48.268Z,17.50
2024-01-04T09:06:51.027Z,15.30
2024-01-04T09:11:54.543Z,12.40
2024-01-04T09:16:57.574Z,12.70
2024-01-04T09:22:00.377Z,15.50
2024-01-04T09:27:04.399Z,14.40
2024-01-04T09:32:07.607Z,15.90
2024-01-04T09:37:10.590Z,12.30
2024-01-04T09:47:23.802Z,15.00
2024-01-04T09:52:27.269Z,12.00
2024-01-04T09:57:30.105Z,14.10
2024-01-04T10:02:33.823Z,23.60
2024-01-04T10:07:44.346Z,15.40
2024-01-04T10:12:48.756Z,16.10
2024-01-04T10:17:53.583Z,22.30
2024-01-04T10:22:59.867Z,15.50
2024-01-04T10:28:03.273Z,15.30
2024-01-04T10:33:06.718Z,19.80
2024-01-04T10:38:10.050Z,19.20
2024-01-04T10:43:20.463Z,18.80
2024-01-04T10:48:23.373Z,16.10
2024-01-04T10:58:34.586Z,24.00
2024-01-04T11:03:38.626Z,30.20
2024-01-04T11:08:44.217Z,24.00
2024-01-04T11:13:47.380Z,24.70
2024-01-04T11:19:09.442Z,41.70
2024-01-04T11:24:50.668Z,66.10
2024-01-04T11:29:54.226Z,57.90
2024-01-04T11:34:57.688Z,74.60
2024-01-04T11:40:08.474Z,50.10
2024-01-04T11:45:15.825Z,39.50
2024-01-04T11:50:21.133Z,26.20
2024-01-04T11:55:26.790Z,29.60
2024-01-04T12:00:34.465Z,26.20
2024-01-04T12:05:37.445Z,47.70
2024-01-04T12:10:41.400Z,25.30
2024-01-04T12:15:44.139Z,25.20
2024-01-04T12:20:47.061Z,17.90
2024-01-04T12:25:50.115Z,25.50
2024-01-04T12:30:53.144Z,18.50
2024-01-04T12:36:01.364Z,16.10
2024-01-04T12:41:04.550Z,14.70
2024-01-04T12:46:08.747Z,21.20
2024-01-04T12:51:18.601Z,21.20
2024-01-04T12:56:21.964Z,12.30
2024-01-04T13:01:24.785Z,30.80
2024-01-04T13:06:29.464Z,20.50
2024-01-04T13:11:32.559Z,17.90
2024-01-04T13:16:35.327Z,33.40
2024-01-04T13:21:38.438Z,46.10
2024-01-04T13:26:44.693Z,36.50
2024-01-04T13:31:48.512Z,20.80
2024-01-04T13:36:51.306Z,43.50
2024-01-04T13:41:55.689Z,43.70
2024-01-04T13:46:58.758Z,40.70
2024-01-04T13:52:04.490Z,32.30
2024-01-04T13:57:09.156Z,38.10
2024-01-04T14:02:12.196Z,30.40
2024-01-04T14:07:15.011Z,24.50
2024-01-04T14:12:17.826Z,30.40
2024-01-04T14:17:20.633Z,16.30
2024-01-04T14:22:23.430Z,15.50
2024-01-04T14:27:27.532Z,19.40
2024-01-04T14:32:33.577Z,16.40
2024-01-04T14:37:40.176Z,37.60
2024-01-04T14:42:43.679Z,31.50
2024-01-04T14:47:47.897Z,28.90
2024-01-04T14:52:50.820Z,28.70
2024-01-04T14:57:56.831Z,17.70
2024-01-04T15:02:59.707Z,17.00
2024-01-04T15:08:03.957Z,14.80
2024-01-04T15:13:07.105Z,13.20
2024-01-04T15:18:10.005Z,13.50
2024-01-04T15:23:13.792Z,19.00
2024-01-04T15:28:16.623Z,14.50
2024-01-04T15:33:19.530Z,14.90
2024-01-04T15:38:22.504Z,13.80
2024-01-04T15:43:25.308Z,18.80
2024-01-04T15:48:29.087Z,24.50
2024-01-04T15:53:31.977Z,14.90
2024-01-04T15:58:34.815Z,12.10
2024-01-04T16:03:38.703Z,27.20
2024-01-04T16:08:41.587Z,31.90
2024-01-04T16:13:45.953Z,25.30
2024-01-04T16:18:48.809Z,22.60
2024-01-04T16:28:55.093Z,25.40
2024-01-04T16:33:58.140Z,20.50
2024-01-04T16:44:04.569Z,17.90
2024-01-04T16:49:07.554Z,15.70
2024-01-04T16:54:11.458Z,22.40
2024-01-04T16:59:14.334Z,18.70
2024-01-04T17:04:17.468Z,29.80
2024-01-04T17:09:22.380Z,23.30
2024-01-04T17:14:25.378Z,21.90
2024-01-04T17:19:28.731Z,22.60
2024-01-04T17:24:32.240Z,18.60
2024-01-04T17:29:35.074Z,21.10
2024-01-04T17:34:37.908Z,22.10
2024-01-04T17:44:43.883Z,24.10
2024-01-04T17:49:48.631Z,19.60
2024-01-04T17:54:52.842Z,18.70
2024-01-04T17:59:55.918Z,17.40
2024-01-04T18:10:01.739Z,22.80
2024-01-04T18:15:05.484Z,22.30
2024-01-04T18:20:09.273Z,23.50
2024-01-04T18:25:12.092Z,14.80
2024-01-04T18:30:15.139Z,17.40
2024-01-04T18:35:18.192Z,18.90
2024-01-04T18:40:21.158Z,13.70
2024-01-04T18:50:26.770Z,12.40
2024-01-04T18:55:29.842Z,10.80
2024-01-04T19:00:32.853Z,11.40
2024-01-04T19:10:39.028Z,10.60
2024-01-04T19:15:49.541Z,13.80
2024-01-04T19:21:00.146Z,15.40
2024-01-04T19:26:03.755Z,13.20
2024-01-04T19:31:07.469Z,9.60
2024-01-04T19:36:10.325Z,18.10
2024-01-04T19:41:13.373Z,16.20
2024-01-04T19:46:16.347Z,10.30
2024-01-04T19:56:25.549Z,20.10
2024-01-04T20:01:28.327Z,17.10
2024-01-04T20:06:31.809Z,13.50
2024-01-04T20:11:35.560Z,16.30
2024-01-04T20:16:40.601Z,15.30
2024-01-04T20:21:44.885Z,16.70
2024-01-04T20:26:47.698Z,13.90
2024-01-04T20:36:53.470Z,7.30
2024-01-04T20:47:02.016Z,9.80
2024-01-04T20:52:05.093Z,9.50
2024-01-04T20:57:07.868Z,13.20
2024-01-04T21:02:10.829Z,8.20
2024-01-04T21:12:16.630Z,9.90
2024-01-04T21:17:19.591Z,11.10
2024-01-04T21:27:27.313Z,16.20
2024-01-04T21:32:30.198Z,8.20
2024-01-04T21:37:32.948Z,6.40
2024-01-04T21:42:35.719Z,6.90
2024-01-04T21:47:38.501Z,8.40
2024-01-04T21:52:41.255Z,14.40
2024-01-04T21:57:43.973Z,10.60
2024-01-04T22:02:46.756Z,6.50
2024-01-04T22:07:49.781Z,14.00
2024-01-04T22:12:53.157Z,8.40
2024-01-04T22:17:55.973Z,10.30
2024-01-04T22:28:01.627Z,10.70
2024-01-04T22:33:04.962Z,7.40
2024-01-04T22:38:07.989Z,9.50
2024-01-04T22:48:13.494Z,13.30
2024-01-04T22:58:19.336Z,7.60
2024-01-04T23:03:22.414Z,4.30
2024-01-04T23:08:25.383Z,5.50
2024-01-04T23:13:28.072Z,6.10
2024-01-04T23:18:31.048Z,6.90
2024-01-04T23:23:34.108Z,5.00
2024-01-04T23:28:40.444Z,3.60
2024-01-04T23:33:43.801Z,5.90
2024-01-04T23:38:46.835Z,4.30
2024-01-04T23:43:49.544Z,4.30
2024-01-04T23:48:52.603Z,5.10
2024-01-04T23:53:55.690Z,5.50
2024-01-04T23:58:58.565Z,4.00
